createdAt,value
2022-10-25T06:30:49.845Z,2.30
2022-10-25T06:35:56.537Z,2.40
2022-10-25T06:41:00.339Z,2.40
2022-10-25T06:46:07.996Z,2.50
2022-10-25T06:51:11.700Z,2.55
2022-10-25T06:56:16.031Z,2.40
2022-10-25T07:01:22.507Z,2.40
2022-10-25T07:06:28.084Z,2.42
2022-10-25T07:11:33.441Z,2.45
2022-10-25T07:16:38.420Z,2.25
2022-10-25T07:21:41.863Z,2.00
2022-10-25T07:26:45.427Z,2.00
2022-10-25T07:31:50.330Z,1.90
2022-10-25T07:36:56.146Z,1.63
2022-10-25T07:42:00.144Z,2.20
2022-10-25T07:47:18.276Z,1.70
2022-10-25T07:52:27.818Z,1.73
2022-10-25T07:57:31.835Z,2.10
2022-10-25T08:02:37.164Z,1.90
2022-10-25T08:07:40.948Z,2.30
2022-10-25T08:12:44.607Z,2.30
2022-10-25T08:17:50.244Z,2.80
2022-10-25T08:22:54.075Z,2.60
2022-10-25T08:28:00.121Z,2.35
2022-10-25T08:33:10.533Z,2.22
2022-10-25T08:38:15.178Z,2.30
2022-10-25T08:43:34.740Z,2.42
2022-10-25T08:48:45.802Z,2.78
2022-10-25T08:58:58.306Z,2.50
2022-10-25T09:04:05.723Z,2.40
2022-10-25T09:09:24.921Z,2.50
2022-10-25T09:14:40.906Z,2.75
2022-10-25T09:19:59.966Z,2.60
2022-10-25T09:25:07.310Z,2.42
2022-10-25T09:30:14.395Z,2.70
2022-10-25T09:35:26.147Z,2.83
2022-10-25T09:40:47.550Z,2.65
2022-10-25T09:45:56.408Z,2.30
2022-10-25T09:51:13.176Z,2.50
2022-10-25T09:56:17.890Z,2.30
2022-10-25T10:06:35.700Z,2.97
2022-10-25T10:11:42.310Z,3.15
2022-10-25T10:16:50.073Z,3.25
2022-10-25T10:21:57.740Z,2.60
2022-10-25T10:27:03.373Z,3.38
2022-10-25T10:32:23.451Z,2.50
2022-10-25T10:37:30.449Z,2.15
2022-10-25T10:42:38.025Z,3.55
2022-10-25T10:47:45.858Z,2.20
2022-10-25T10:53:00.389Z,2.63
2022-10-25T10:58:09.265Z,3.92
2022-10-25T11:03:58.807Z,2.90
2022-10-25T11:09:17.096Z,2.75
2022-10-25T11:14:34.950Z,2.65
2022-10-25T11:19:50.713Z,3.03
2022-10-25T11:25:06.479Z,2.53
2022-10-25T11:30:19.462Z,2.78
2022-10-25T11:35:59.310Z,3.30
2022-10-25T11:41:14.607Z,2.40
2022-10-25T11:46:30.584Z,2.67
2022-10-25T11:51:43.913Z,2.20
2022-10-25T11:57:01.235Z,2.08
2022-10-25T12:02:21.038Z,2.13
2022-10-25T12:07:33.433Z,2.30
2022-10-25T12:12:46.754Z,2.60
2022-10-25T12:17:55.470Z,2.63
2022-10-25T12:23:01.479Z,2.43
2022-10-25T12:28:17.783Z,1.98
2022-10-25T12:33:30.382Z,2.58
2022-10-25T12:38:36.702Z,2.70
2022-10-25T12:43:49.854Z,2.45
2022-10-25T12:49:44.539Z,2.33
2022-10-25T12:55:06.550Z,2.00
2022-10-25T13:00:15.308Z,2.53
2022-10-25T13:05:41.695Z,2.00
2022-10-25T13:10:48.869Z,1.95
2022-10-25T13:15:57.562Z,2.42
2022-10-25T13:21:02.619Z,2.28
2022-10-25T13:26:09.151Z,2.08
2022-10-25T13:31:58.473Z,2.40
2022-10-25T13:37:38.942Z,3.03
2022-10-25T13:42:45.325Z,3.20
2022-10-25T13:47:53.408Z,3.25
2022-10-25T13:53:03.142Z,2.80
2022-10-25T13:58:40.060Z,3.10
2022-10-25T14:03:51.065Z,2.67
2022-10-25T14:09:08.673Z,3.28
2022-10-25T14:14:23.234Z,2.50
2022-10-25T14:29:45.342Z,2.28
2022-10-25T14:34:54.212Z,2.55
2022-10-25T14:39:57.912Z,2.22
2022-10-25T14:45:02.119Z,2.72
2022-10-25T14:50:15.990Z,3.55
2022-10-25T14:55:32.848Z,3.00
2022-10-25T15:00:36.821Z,2.40
2022-10-25T15:05:43.040Z,2.80
2022-10-25T15:10:51.544Z,2.90
2022-10-25T15:15:55.776Z,3.22
2022-10-25T15:21:10.059Z,3.40
2022-10-25T15:26:28.279Z,3.10
2022-10-25T15:31:33.620Z,3.13
2022-10-25T15:36:40.931Z,3.60
2022-10-25T15:41:44.704Z,4.00
2022-10-25T15:46:48.785Z,3.67
2022-10-25T15:51:54.947Z,3.93
2022-10-25T15:56:58.404Z,4.40
2022-10-25T16:02:03.366Z,4.20
2022-10-25T16:07:11.713Z,4.28
2022-10-25T16:12:22.750Z,4.95
2022-10-25T16:17:26.582Z,5.38
2022-10-25T16:22:31.734Z,7.45
2022-10-25T16:27:35.762Z,8.57
2022-10-25T16:32:42.139Z,8.32
2022-10-25T16:37:47.478Z,8.40
2022-10-25T16:42:54.833Z,8.45
2022-10-25T16:47:58.829Z,9.93
2022-10-25T16:53:07.175Z,9.80
2022-10-25T16:58:11.261Z,10.02
2022-10-25T17:03:17.627Z,11.45
2022-10-25T17:08:24.825Z,12.45
2022-10-25T17:13:28.725Z,13.20
2022-10-25T17:18:33.868Z,12.70
2022-10-25T17:23:39.512Z,12.57
2022-10-25T17:28:44.528Z,13.57
2022-10-25T17:33:49.594Z,13.38
2022-10-25T17:38:55.132Z,13.25
2022-10-25T17:43:59.267Z,12.18
2022-10-25T17:49:05.825Z,13.00
2022-10-25T17:54:11.190Z,12.48
2022-10-25T17:59:14.846Z,12.20
2022-10-25T18:04:21.487Z,12.68
2022-10-25T18:09:26.733Z,13.43
2022-10-25T18:14:33.665Z,12.48
2022-10-25T18:19:37.646Z,12.85
2022-10-25T18:24:42.789Z,12.40
2022-10-25T18:29:46.385Z,13.45
2022-10-25T18:34:51.171Z,13.07
2022-10-25T18:39:57.257Z,13.90
2022-10-25T18:45:01.471Z,15.23
2022-10-25T18:50:11.863Z,16.40
2022-10-25T18:55:29.451Z,15.15
2022-10-25T19:00:51.054Z,15.20
2022-10-25T19:05:56.896Z,14.50
2022-10-25T19:11:19.210Z,14.73
2022-10-25T19:16:25.111Z,14.02
2022-10-25T19:21:29.203Z,13.75
2022-10-25T19:26:36.302Z,14.03
2022-10-25T19:31:40.404Z,12.15
2022-10-25T19:36:44.408Z,13.27
2022-10-25T19:41:51.614Z,13.20
2022-10-25T19:46:55.742Z,13.90
2022-10-25T19:51:59.535Z,15.73
2022-10-25T19:57:06.348Z,15.60
2022-10-25T20:02:10.559Z,13.68
2022-10-25T20:07:14.482Z,14.33
2022-10-25T20:12:19.712Z,13.63
2022-10-25T20:17:23.294Z,13.00
2022-10-25T20:22:27.112Z,15.80
2022-10-25T20:27:32.772Z,14.80
2022-10-25T20:32:37.088Z,14.75
2022-10-25T20:37:40.896Z,13.07
2022-10-25T20:42:48.537Z,12.35
2022-10-25T20:47:55.041Z,13.20
2022-10-25T20:53:09.776Z,11.90
2022-10-25T20:58:15.570Z,12.30
2022-10-25T21:03:19.061Z,11.75
2022-10-25T21:08:28.978Z,11.73
2022-10-25T21:13:36.116Z,12.73
2022-10-25T21:18:43.499Z,14.23
2022-10-25T21:23:49.803Z,14.18
2022-10-25T21:28:55.060Z,13.02
2022-10-25T21:34:02.709Z,12.55
2022-10-25T21:39:06.545Z,12.80
2022-10-25T21:44:11.594Z,13.00
2022-10-25T21:54:18.859Z,12.52
2022-10-25T21:59:26.469Z,12.20
